This is the latest recevied weather packets stored in our database for station/object N0HEQ. If no packets are shown the sender has not sent any weather packets the latest 10 day(s).
| Time | Temp. | Humidity | Pressure | Rain* | Wind** | Luminosity | Snow |
|---|---|---|---|---|---|---|---|
| 1777246186 | 14.44° C | 50% | 1005.4 hPa | 0 mm | - | 259 W/m² | - |
| 1777245884 | 13.89° C | 57% | 1005.5 hPa | 0 mm | - | 273 W/m² | - |
| 1777245583 | 13.89° C | 53% | 1005.4 hPa | 0 mm | - | 314 W/m² | - |
| 1777245278 | 14.44° C | 55% | 1005.3 hPa | 0 mm | - | 340 W/m² | - |
| 1777244974 | 14.44° C | 57% | 1005.4 hPa | 0 mm | - | 317 W/m² | - |
| 1777244670 | 14.44° C | 62% | 1005.4 hPa | 0 mm | - | 312 W/m² | - |
| 1777244366 | 13.33° C | 61% | 1005 hPa | 0 mm | - | 417 W/m² | - |
| 1777244063 | 12.22° C | 66% | 1004.9 hPa | 0 mm | - | 469 W/m² | - |
| 1777243761 | 11.67° C | 69% | 1005.1 hPa | 0 mm | - | 366 W/m² | - |
| 1777243458 | 10.56° C | 75% | 1005.1 hPa | 0 mm | - | 245 W/m² | - |
| 1777243154 | 10° C | 75% | 1005.4 hPa | 0 mm | - | 152 W/m² | - |
| 1777242850 | 9.44° C | 74% | 1005.5 hPa | 0 mm | - | 136 W/m² | - |
| 1777242547 | 9.44° C | 77% | 1005.8 hPa | 0 mm | - | 99 W/m² | - |
| 1777242243 | 8.89° C | 76% | 1005.4 hPa | 0 mm | - | 65 W/m² | - |
| 1777241941 | 8.89° C | 76% | 1005.7 hPa | 0 mm | - | 40 W/m² | - |
| 1777241637 | 8.89° C | 76% | 1005.8 hPa | 0 mm | - | 32 W/m² | - |
| 1777241335 | 8.89° C | 76% | 1006.2 hPa | 0 mm | - | 27 W/m² | - |
| 1777241032 | 8.89° C | 76% | 1006.1 hPa | 0 mm | - | 24 W/m² | - |
| 1777240730 | 9.44° C | 74% | 1006.3 hPa | 0 mm | - | 21 W/m² | - |
| 1777240428 | 10.56° C | 64% | 1006.4 hPa | 0 mm | - | 15 W/m² | - |
| 1777240125 | 10.56° C | 60% | 1007 hPa | 0 mm | - | 18 W/m² | - |
| 1777239823 | 10.56° C | 60% | 1006.7 hPa | 0 mm | - | 41 W/m² | - |
| 1777239518 | 10.56° C | 59% | 1006.7 hPa | 0 mm | - | 73 W/m² | - |
| 1777239216 | 11.11° C | 58% | 1006.1 hPa | 0 mm | - | 109 W/m² | - |
| 1777238913 | 11.67° C | 60% | 1006 hPa | 0 mm | - | 115 W/m² | - |
* Rain latest hour (hover to see other rain measurements)
** Current wind speed in m/s (hover to see current wind gust speed)